sensor_id;sensor_type;location;lat;lon;timestamp;temperature;humidity
68578;SHT31;61668;45.388;11.784;2022-09-09T00:04:34;22.91;76.13
68578;SHT31;61668;45.388;11.784;2022-09-09T00:07:22;22.85;76.17
68578;SHT31;61668;45.388;11.784;2022-09-09T00:10:14;22.74;76.34
68578;SHT31;61668;45.388;11.784;2022-09-09T00:19:01;22.68;76.81
68578;SHT31;61668;45.388;11.784;2022-09-09T00:21:38;22.70;76.83
68578;SHT31;61668;45.388;11.784;2022-09-09T00:24:32;22.72;76.86
68578;SHT31;61668;45.388;11.784;2022-09-09T00:32:36;22.71;76.74
68578;SHT31;61668;45.388;11.784;2022-09-09T00:35:04;22.70;76.72
68578;SHT31;61668;45.388;11.784;2022-09-09T00:38:15;22.68;76.71
68578;SHT31;61668;45.388;11.784;2022-09-09T00:41:05;22.67;76.73
68578;SHT31;61668;45.388;11.784;2022-09-09T00:43:38;22.68;76.70
68578;SHT31;61668;45.388;11.784;2022-09-09T00:54:50;22.56;76.80
68578;SHT31;61668;45.388;11.784;2022-09-09T00:57:36;22.51;76.80
68578;SHT31;61668;45.388;11.784;2022-09-09T01:07:58;22.43;77.12
68578;SHT31;61668;45.388;11.784;2022-09-09T01:10:40;22.41;77.26
68578;SHT31;61668;45.388;11.784;2022-09-09T01:13:24;22.39;77.30
68578;SHT31;61668;45.388;11.784;2022-09-09T01:15:55;22.38;77.38
68578;SHT31;61668;45.388;11.784;2022-09-09T01:18:26;22.40;77.34
68578;SHT31;61668;45.388;11.784;2022-09-09T01:26:43;22.39;77.22
68578;SHT31;61668;45.388;11.784;2022-09-09T01:29:12;22.37;77.21
68578;SHT31;61668;45.388;11.784;2022-09-09T01:31:42;22.33;77.21
68578;SHT31;61668;45.388;11.784;2022-09-09T01:34:24;22.31;77.24
68578;SHT31;61668;45.388;11.784;2022-09-09T01:36:57;22.31;77.23
68578;SHT31;61668;45.388;11.784;2022-09-09T01:39:29;22.31;77.20
68578;SHT31;61668;45.388;11.784;2022-09-09T01:41:55;22.30;77.19
68578;SHT31;61668;45.388;11.784;2022-09-09T01:44:21;22.31;77.13
68578;SHT31;61668;45.388;11.784;2022-09-09T01:46:47;22.31;77.10
68578;SHT31;61668;45.388;11.784;2022-09-09T01:49:13;22.28;77.09
68578;SHT31;61668;45.388;11.784;2022-09-09T01:51:39;22.28;77.09
68578;SHT31;61668;45.388;11.784;2022-09-09T01:54:06;22.24;77.07
68578;SHT31;61668;45.388;11.784;2022-09-09T02:02:07;22.18;76.98
68578;SHT31;61668;45.388;11.784;2022-09-09T02:04:42;22.14;77.00
68578;SHT31;61668;45.388;11.784;2022-09-09T02:07:30;22.12;77.03
68578;SHT31;61668;45.388;11.784;2022-09-09T02:10:12;22.05;77.05
68578;SHT31;61668;45.388;11.784;2022-09-09T02:12:53;21.98;77.13
68578;SHT31;61668;45.388;11.784;2022-09-09T02:15:29;21.94;77.18
68578;SHT31;61668;45.388;11.784;2022-09-09T02:18:23;21.92;77.24
68578;SHT31;61668;45.388;11.784;2022-09-09T02:20:53;21.92;77.27
68578;SHT31;61668;45.388;11.784;2022-09-09T02:23:22;21.90;77.24
68578;SHT31;61668;45.388;11.784;2022-09-09T02:25:48;21.87;77.22
68578;SHT31;61668;45.388;11.784;2022-09-09T02:28:16;21.84;77.25
68578;SHT31;61668;45.388;11.784;2022-09-09T02:30:46;21.80;77.28
68578;SHT31;61668;45.388;11.784;2022-09-09T02:33:21;21.75;77.32
68578;SHT31;61668;45.388;11.784;2022-09-09T02:35:59;21.74;77.38
68578;SHT31;61668;45.388;11.784;2022-09-09T02:38:29;21.72;77.40
68578;SHT31;61668;45.388;11.784;2022-09-09T02:41:02;21.72;77.42
68578;SHT31;61668;45.388;11.784;2022-09-09T02:43:32;21.74;77.47
68578;SHT31;61668;45.388;11.784;2022-09-09T02:49:09;21.75;77.50
68578;SHT31;61668;45.388;11.784;2022-09-09T02:54:41;21.73;77.46
68578;SHT31;61668;45.388;11.784;2022-09-09T02:59:48;21.74;77.40
68578;SHT31;61668;45.388;11.784;2022-09-09T03:02:17;21.76;77.40
68578;SHT31;61668;45.388;11.784;2022-09-09T03:04:43;21.76;77.33
68578;SHT31;61668;45.388;11.784;2022-09-09T03:07:10;21.73;77.36
68578;SHT31;61668;45.388;11.784;2022-09-09T03:09:37;21.72;77.40
68578;SHT31;61668;45.388;11.784;2022-09-09T03:12:02;21.70;77.40
68578;SHT31;61668;45.388;11.784;2022-09-09T03:14:29;21.71;77.39
68578;SHT31;61668;45.388;11.784;2022-09-09T03:16:56;21.73;77.34
68578;SHT31;61668;45.388;11.784;2022-09-09T03:19:25;21.75;77.29
68578;SHT31;61668;45.388;11.784;2022-09-09T03:21:51;21.75;77.26
68578;SHT31;61668;45.388;11.784;2022-09-09T03:24:16;21.74;77.23
68578;SHT31;61668;45.388;11.784;2022-09-09T03:26:42;21.71;77.30
68578;SHT31;61668;45.388;11.784;2022-09-09T03:29:11;21.68;77.30
68578;SHT31;61668;45.388;11.784;2022-09-09T03:31:37;21.69;77.30
68578;SHT31;61668;45.388;11.784;2022-09-09T03:34:04;21.69;77.24
68578;SHT31;61668;45.388;11.784;2022-09-09T03:36:30;21.68;77.21
68578;SHT31;61668;45.388;11.784;2022-09-09T03:38:56;21.68;77.20
68578;SHT31;61668;45.388;11.784;2022-09-09T03:43:54;21.64;77.28
68578;SHT31;61668;45.388;11.784;2022-09-09T03:46:22;21.61;77.30
68578;SHT31;61668;45.388;11.784;2022-09-09T03:48:50;21.59;77.29
68578;SHT31;61668;45.388;11.784;2022-09-09T03:51:17;21.60;77.24
68578;SHT31;61668;45.388;11.784;2022-09-09T03:53:43;21.59;77.21
68578;SHT31;61668;45.388;11.784;2022-09-09T03:56:09;21.60;77.29
68578;SHT31;61668;45.388;11.784;2022-09-09T03:58:35;21.61;77.28
68578;SHT31;61668;45.388;11.784;2022-09-09T04:01:03;21.61;77.30
68578;SHT31;61668;45.388;11.784;2022-09-09T04:03:34;21.60;77.32
68578;SHT31;61668;45.388;11.784;2022-09-09T04:06:01;21.59;77.30
68578;SHT31;61668;45.388;11.784;2022-09-09T04:08:28;21.57;77.23
68578;SHT31;61668;45.388;11.784;2022-09-09T04:10:58;21.55;77.21
68578;SHT31;61668;45.388;11.784;2022-09-09T04:13:24;21.56;77.19
68578;SHT31;61668;45.388;11.784;2022-09-09T04:15:52;21.57;77.18
68578;SHT31;61668;45.388;11.784;2022-09-09T04:18:20;21.58;77.13
68578;SHT31;61668;45.388;11.784;2022-09-09T04:20:47;21.59;77.12
68578;SHT31;61668;45.388;11.784;2022-09-09T04:23:15;21.60;77.13
68578;SHT31;61668;45.388;11.784;2022-09-09T04:25:45;21.59;77.10
68578;SHT31;61668;45.388;11.784;2022-09-09T04:28:17;21.57;77.10
68578;SHT31;61668;45.388;11.784;2022-09-09T04:30:44;21.56;77.08
68578;SHT31;61668;45.388;11.784;2022-09-09T04:33:11;21.56;77.10
68578;SHT31;61668;45.388;11.784;2022-09-09T04:35:38;21.57;77.09
68578;SHT31;61668;45.388;11.784;2022-09-09T04:38:09;21.58;77.05
68578;SHT31;61668;45.388;11.784;2022-09-09T04:40:34;21.58;77.04
68578;SHT31;61668;45.388;11.784;2022-09-09T04:43:01;21.57;77.00
68578;SHT31;61668;45.388;11.784;2022-09-09T04:45:30;21.54;77.00
68578;SHT31;61668;45.388;11.784;2022-09-09T04:47:56;21.50;77.05
68578;SHT31;61668;45.388;11.784;2022-09-09T04:50:22;21.46;77.10
68578;SHT31;61668;45.388;11.784;2022-09-09T04:52:47;21.46;77.10
68578;SHT31;61668;45.388;11.784;2022-09-09T04:55:13;21.44;77.11
68578;SHT31;61668;45.388;11.784;2022-09-09T04:57:39;21.43;77.14
68578;SHT31;61668;45.388;11.784;2022-09-09T05:00:05;21.44;77.17
68578;SHT31;61668;45.388;11.784;2022-09-09T05:02:32;21.42;77.18
68578;SHT31;61668;45.388;11.784;2022-09-09T05:04:58;21.41;77.20
68578;SHT31;61668;45.388;11.784;2022-09-09T05:07:26;21.39;77.27
68578;SHT31;61668;45.388;11.784;2022-09-09T05:09:52;21.38;77.33
68578;SHT31;61668;45.388;11.784;2022-09-09T05:12:17;21.39;77.40
68578;SHT31;61668;45.388;11.784;2022-09-09T05:14:43;21.40;77.40
68578;SHT31;61668;45.388;11.784;2022-09-09T05:17:09;21.43;77.40
68578;SHT31;61668;45.388;11.784;2022-09-09T05:19:35;21.45;77.39
68578;SHT31;61668;45.388;11.784;2022-09-09T05:22:01;21.48;77.30
68578;SHT31;61668;45.388;11.784;2022-09-09T05:24:27;21.51;77.27
68578;SHT31;61668;45.388;11.784;2022-09-09T05:26:53;21.55;77.23
68578;SHT31;61668;45.388;11.784;2022-09-09T05:29:19;21.58;77.22
68578;SHT31;61668;45.388;11.784;2022-09-09T05:31:45;21.62;77.16
68578;SHT31;61668;45.388;11.784;2022-09-09T05:34:12;21.65;77.09
68578;SHT31;61668;45.388;11.784;2022-09-09T05:36:37;21.69;77.03
68578;SHT31;61668;45.388;11.784;2022-09-09T05:39:03;21.72;76.94
68578;SHT31;61668;45.388;11.784;2022-09-09T05:41:29;21.75;76.90
68578;SHT31;61668;45.388;11.784;2022-09-09T05:43:55;21.83;76.88
68578;SHT31;61668;45.388;11.784;2022-09-09T05:46:24;21.90;76.73
68578;SHT31;61668;45.388;11.784;2022-09-09T05:48:51;21.96;76.68
68578;SHT31;61668;45.388;11.784;2022-09-09T05:51:22;22.00;76.53
68578;SHT31;61668;45.388;11.784;2022-09-09T05:53:51;22.00;76.44
68578;SHT31;61668;45.388;11.784;2022-09-09T05:56:21;22.02;76.29
68578;SHT31;61668;45.388;11.784;2022-09-09T05:58:53;22.04;76.26
68578;SHT31;61668;45.388;11.784;2022-09-09T06:03:49;22.16;76.10
68578;SHT31;61668;45.388;11.784;2022-09-09T06:06:17;22.21;76.11
68578;SHT31;61668;45.388;11.784;2022-09-09T06:08:53;22.25;75.94
68578;SHT31;61668;45.388;11.784;2022-09-09T06:11:26;22.25;75.89
68578;SHT31;61668;45.388;11.784;2022-09-09T06:13:57;22.30;75.74
68578;SHT31;61668;45.388;11.784;2022-09-09T06:16:25;22.33;75.71
68578;SHT31;61668;45.388;11.784;2022-09-09T06:18:53;22.41;75.68
68578;SHT31;61668;45.388;11.784;2022-09-09T06:21:22;22.51;75.60
68578;SHT31;61668;45.388;11.784;2022-09-09T06:23:57;22.63;75.62
68578;SHT31;61668;45.388;11.784;2022-09-09T06:26:23;22.75;75.39
68578;SHT31;61668;45.388;11.784;2022-09-09T06:28:57;22.86;75.08
68578;SHT31;61668;45.388;11.784;2022-09-09T06:31:28;22.98;74.89
68578;SHT31;61668;45.388;11.784;2022-09-09T06:33:55;23.08;74.74
68578;SHT31;61668;45.388;11.784;2022-09-09T06:36:23;23.20;74.40
68578;SHT31;61668;45.388;11.784;2022-09-09T06:38:51;23.34;74.39
68578;SHT31;61668;45.388;11.784;2022-09-09T06:41:18;23.41;74.17
68578;SHT31;61668;45.388;11.784;2022-09-09T06:43:46;23.45;73.79
68578;SHT31;61668;45.388;11.784;2022-09-09T06:46:22;23.46;73.76
68578;SHT31;61668;45.388;11.784;2022-09-09T06:48:54;23.51;73.78
68578;SHT31;61668;45.388;11.784;2022-09-09T06:51:24;23.56;73.68
68578;SHT31;61668;45.388;11.784;2022-09-09T06:53:53;23.67;73.70
68578;SHT31;61668;45.388;11.784;2022-09-09T06:56:31;23.72;73.62
68578;SHT31;61668;45.388;11.784;2022-09-09T06:59:00;23.75;73.65
68578;SHT31;61668;45.388;11.784;2022-09-09T07:01:31;23.79;73.62
68578;SHT31;61668;45.388;11.784;2022-09-09T07:03:59;23.84;73.73
68578;SHT31;61668;45.388;11.784;2022-09-09T07:06:27;23.91;73.60
68578;SHT31;61668;45.388;11.784;2022-09-09T07:09:00;23.98;73.58
68578;SHT31;61668;45.388;11.784;2022-09-09T07:11:33;24.05;73.54
68578;SHT31;61668;45.388;11.784;2022-09-09T07:14:03;24.13;73.53
68578;SHT31;61668;45.388;11.784;2022-09-09T07:16:28;24.21;73.36
68578;SHT31;61668;45.388;11.784;2022-09-09T07:18:56;24.27;73.43
68578;SHT31;61668;45.388;11.784;2022-09-09T07:21:26;24.34;73.45
68578;SHT31;61668;45.388;11.784;2022-09-09T07:23:54;24.43;73.43
68578;SHT31;61668;45.388;11.784;2022-09-09T07:26:21;24.53;73.22
68578;SHT31;61668;45.388;11.784;2022-09-09T07:28:49;24.62;72.95
68578;SHT31;61668;45.388;11.784;2022-09-09T07:31:16;24.70;72.75
68578;SHT31;61668;45.388;11.784;2022-09-09T07:33:47;24.76;72.82
68578;SHT31;61668;45.388;11.784;2022-09-09T07:36:17;24.80;72.92
68578;SHT31;61668;45.388;11.784;2022-09-09T07:38:50;24.87;72.73
68578;SHT31;61668;45.388;11.784;2022-09-09T07:41:19;24.99;72.40
68578;SHT31;61668;45.388;11.784;2022-09-09T07:43:48;25.12;72.19
68578;SHT31;61668;45.388;11.784;2022-09-09T07:46:15;25.29;71.73
68578;SHT31;61668;45.388;11.784;2022-09-09T07:48:48;25.41;71.70
68578;SHT31;61668;45.388;11.784;2022-09-09T07:51:17;25.63;71.50
68578;SHT31;61668;45.388;11.784;2022-09-09T07:53:47;25.78;70.93
68578;SHT31;61668;45.388;11.784;2022-09-09T07:56:18;25.83;71.01
68578;SHT31;61668;45.388;11.784;2022-09-09T07:58:47;25.90;70.90
68578;SHT31;61668;45.388;11.784;2022-09-09T08:01:20;26.05;70.45
68578;SHT31;61668;45.388;11.784;2022-09-09T08:03:53;26.28;69.59
68578;SHT31;61668;45.388;11.784;2022-09-09T08:06:26;26.45;69.07
68578;SHT31;61668;45.388;11.784;2022-09-09T08:08:54;26.59;68.99
68578;SHT31;61668;45.388;11.784;2022-09-09T08:11:20;26.76;68.60
68578;SHT31;61668;45.388;11.784;2022-09-09T08:13:50;26.94;67.86
68578;SHT31;61668;45.388;11.784;2022-09-09T08:16:18;27.06;67.38
68578;SHT31;61668;45.388;11.784;2022-09-09T08:18:50;27.08;66.58
68578;SHT31;61668;45.388;11.784;2022-09-09T08:21:21;26.96;66.31
68578;SHT31;61668;45.388;11.784;2022-09-09T08:23:50;26.86;66.61
68578;SHT31;61668;45.388;11.784;2022-09-09T08:26:18;26.88;66.79
68578;SHT31;61668;45.388;11.784;2022-09-09T08:28:48;26.86;66.52
68578;SHT31;61668;45.388;11.784;2022-09-09T08:31:24;26.83;66.00
68578;SHT31;61668;45.388;11.784;2022-09-09T08:33:59;26.78;65.70
68578;SHT31;61668;45.388;11.784;2022-09-09T08:36:26;26.73;65.99
68578;SHT31;61668;45.388;11.784;2022-09-09T08:38:55;26.93;66.00
68578;SHT31;61668;45.388;11.784;2022-09-09T08:58:34;28.91;59.36
68578;SHT31;61668;45.388;11.784;2022-09-09T09:12:01;32.86;52.44
68578;SHT31;61668;45.388;11.784;2022-09-09T09:14:39;33.57;51.46
68578;SHT31;61668;45.388;11.784;2022-09-09T09:17:06;34.09;50.56
68578;SHT31;61668;45.388;11.784;2022-09-09T09:19:39;34.59;49.84
68578;SHT31;61668;45.388;11.784;2022-09-09T09:22:10;34.61;48.85
68578;SHT31;61668;45.388;11.784;2022-09-09T09:27:40;33.68;49.69
68578;SHT31;61668;45.388;11.784;2022-09-09T09:30:50;33.59;49.02
68578;SHT31;61668;45.388;11.784;2022-09-09T09:33:33;33.85;48.16
68578;SHT31;61668;45.388;11.784;2022-09-09T09:36:08;34.13;48.71
68578;SHT31;61668;45.388;11.784;2022-09-09T09:38:34;34.33;48.12
68578;SHT31;61668;45.388;11.784;2022-09-09T09:41:01;34.42;48.17
68578;SHT31;61668;45.388;11.784;2022-09-09T09:43:29;34.45;48.36
68578;SHT31;61668;45.388;11.784;2022-09-09T09:45:57;34.37;47.48
68578;SHT31;61668;45.388;11.784;2022-09-09T09:48:24;34.28;47.23
68578;SHT31;61668;45.388;11.784;2022-09-09T09:50:55;34.19;47.20
68578;SHT31;61668;45.388;11.784;2022-09-09T09:53:25;34.10;47.63
68578;SHT31;61668;45.388;11.784;2022-09-09T09:56:01;33.89;47.12
68578;SHT31;61668;45.388;11.784;2022-09-09T10:03:58;32.86;49.06
68578;SHT31;61668;45.388;11.784;2022-09-09T10:06:33;32.95;48.42
68578;SHT31;61668;45.388;11.784;2022-09-09T10:09:03;32.98;47.48
68578;SHT31;61668;45.388;11.784;2022-09-09T10:33:24;29.75;52.61
68578;SHT31;61668;45.388;11.784;2022-09-09T10:36:17;29.45;53.52
68578;SHT31;61668;45.388;11.784;2022-09-09T10:39:04;29.40;53.74
68578;SHT31;61668;45.388;11.784;2022-09-09T10:54:17;29.80;54.42
68578;SHT31;61668;45.388;11.784;2022-09-09T10:57:11;30.15;54.43
68578;SHT31;61668;45.388;11.784;2022-09-09T10:59:47;30.37;53.60
68578;SHT31;61668;45.388;11.784;2022-09-09T11:02:28;30.46;53.31
68578;SHT31;61668;45.388;11.784;2022-09-09T11:05:01;30.37;53.18
68578;SHT31;61668;45.388;11.784;2022-09-09T11:07:53;30.17;53.17
68578;SHT31;61668;45.388;11.784;2022-09-09T11:10:25;30.04;53.50
68578;SHT31;61668;45.388;11.784;2022-09-09T11:12:57;30.09;53.79
68578;SHT31;61668;45.388;11.784;2022-09-09T11:18:19;30.38;53.43
68578;SHT31;61668;45.388;11.784;2022-09-09T11:20:50;30.54;53.00
68578;SHT31;61668;45.388;11.784;2022-09-09T11:23:26;30.59;52.41
68578;SHT31;61668;45.388;11.784;2022-09-09T11:26:03;30.61;52.33
68578;SHT31;61668;45.388;11.784;2022-09-09T11:34:39;30.67;51.79
68578;SHT31;61668;45.388;11.784;2022-09-09T11:40:14;30.16;52.59
68578;SHT31;61668;45.388;11.784;2022-09-09T11:42:48;29.76;52.82
68578;SHT31;61668;45.388;11.784;2022-09-09T11:45:42;29.46;53.67
68578;SHT31;61668;45.388;11.784;2022-09-09T11:48:44;29.27;53.80
68578;SHT31;61668;45.388;11.784;2022-09-09T11:51:26;28.99;53.50
68578;SHT31;61668;45.388;11.784;2022-09-09T11:56:33;28.54;54.21
68578;SHT31;61668;45.388;11.784;2022-09-09T11:59:25;28.35;54.23
68578;SHT31;61668;45.388;11.784;2022-09-09T12:02:13;28.18;54.10
68578;SHT31;61668;45.388;11.784;2022-09-09T12:04:54;28.01;53.74
68578;SHT31;61668;45.388;11.784;2022-09-09T12:07:36;27.87;54.29
68578;SHT31;61668;45.388;11.784;2022-09-09T12:12:52;27.51;56.66
68578;SHT31;61668;45.388;11.784;2022-09-09T12:17:51;27.16;58.69
68578;SHT31;61668;45.388;11.784;2022-09-09T12:23:18;26.74;61.36
68578;SHT31;61668;45.388;11.784;2022-09-09T12:28:44;25.73;63.51
68578;SHT31;61668;45.388;11.784;2022-09-09T12:34:40;24.81;65.46
68578;SHT31;61668;45.388;11.784;2022-09-09T12:39:57;24.29;67.11
68578;SHT31;61668;45.388;11.784;2022-09-09T12:42:25;24.11;66.68
68578;SHT31;61668;45.388;11.784;2022-09-09T12:44:52;23.92;66.69
68578;SHT31;61668;45.388;11.784;2022-09-09T12:47:37;23.68;67.44
68578;SHT31;61668;45.388;11.784;2022-09-09T12:52:43;23.20;68.94
68578;SHT31;61668;45.388;11.784;2022-09-09T12:55:21;23.06;69.63
68578;SHT31;61668;45.388;11.784;2022-09-09T12:57:51;22.94;70.36
68578;SHT31;61668;45.388;11.784;2022-09-09T13:00:21;22.84;70.96
68578;SHT31;61668;45.388;11.784;2022-09-09T13:02:53;22.79;72.21
68578;SHT31;61668;45.388;11.784;2022-09-09T13:05:40;22.80;73.16
68578;SHT31;61668;45.388;11.784;2022-09-09T13:08:06;22.86;73.42
68578;SHT31;61668;45.388;11.784;2022-09-09T13:10:36;22.92;73.26
68578;SHT31;61668;45.388;11.784;2022-09-09T13:13:05;22.96;73.21
68578;SHT31;61668;45.388;11.784;2022-09-09T13:15:47;23.02;73.78
68578;SHT31;61668;45.388;11.784;2022-09-09T13:18:16;23.11;73.79
68578;SHT31;61668;45.388;11.784;2022-09-09T13:20:48;23.21;73.79
68578;SHT31;61668;45.388;11.784;2022-09-09T13:23:15;23.33;74.09
68578;SHT31;61668;45.388;11.784;2022-09-09T13:25:52;23.47;73.94
68578;SHT31;61668;45.388;11.784;2022-09-09T13:28:21;23.60;74.38
68578;SHT31;61668;45.388;11.784;2022-09-09T13:31:18;23.67;74.00
68578;SHT31;61668;45.388;11.784;2022-09-09T13:33:53;23.67;73.08
68578;SHT31;61668;45.388;11.784;2022-09-09T13:36:32;23.69;73.11
68578;SHT31;61668;45.388;11.784;2022-09-09T13:39:00;23.71;73.12
68578;SHT31;61668;45.388;11.784;2022-09-09T13:41:44;23.77;72.39
68578;SHT31;61668;45.388;11.784;2022-09-09T13:44:30;23.82;71.08
68578;SHT31;61668;45.388;11.784;2022-09-09T13:47:26;23.87;70.91
68578;SHT31;61668;45.388;11.784;2022-09-09T13:49:54;23.92;70.72
68578;SHT31;61668;45.388;11.784;2022-09-09T13:52:19;23.93;71.12
68578;SHT31;61668;45.388;11.784;2022-09-09T13:54:50;23.97;71.50
68578;SHT31;61668;45.388;11.784;2022-09-09T13:57:24;23.99;71.33
68578;SHT31;61668;45.388;11.784;2022-09-09T13:59:51;24.01;71.52
68578;SHT31;61668;45.388;11.784;2022-09-09T14:02:20;24.06;71.76
68578;SHT31;61668;45.388;11.784;2022-09-09T14:04:48;24.14;72.32
68578;SHT31;61668;45.388;11.784;2022-09-09T14:07:16;24.24;72.56
68578;SHT31;61668;45.388;11.784;2022-09-09T14:09:43;24.33;72.52
68578;SHT31;61668;45.388;11.784;2022-09-09T14:12:13;24.39;72.36
68578;SHT31;61668;45.388;11.784;2022-09-09T14:14:40;24.44;71.91
68578;SHT31;61668;45.388;11.784;2022-09-09T14:17:10;24.48;71.83
68578;SHT31;61668;45.388;11.784;2022-09-09T14:19:35;24.51;71.82
68578;SHT31;61668;45.388;11.784;2022-09-09T14:22:02;24.56;72.06
68578;SHT31;61668;45.388;11.784;2022-09-09T14:24:28;24.61;71.61
68578;SHT31;61668;45.388;11.784;2022-09-09T14:26:54;24.68;70.96
68578;SHT31;61668;45.388;11.784;2022-09-09T14:29:20;24.75;70.40
68578;SHT31;61668;45.388;11.784;2022-09-09T14:31:45;24.80;70.29
68578;SHT31;61668;45.388;11.784;2022-09-09T14:34:11;24.85;69.83
68578;SHT31;61668;45.388;11.784;2022-09-09T14:36:38;24.88;69.65
68578;SHT31;61668;45.388;11.784;2022-09-09T14:39:04;24.92;70.17
68578;SHT31;61668;45.388;11.784;2022-09-09T14:41:29;24.97;69.78
68578;SHT31;61668;45.388;11.784;2022-09-09T14:43:57;25.00;69.78
68578;SHT31;61668;45.388;11.784;2022-09-09T14:46:23;25.04;69.27
68578;SHT31;61668;45.388;11.784;2022-09-09T14:48:49;25.11;68.82
68578;SHT31;61668;45.388;11.784;2022-09-09T14:53:44;25.21;68.23
68578;SHT31;61668;45.388;11.784;2022-09-09T14:56:12;25.23;67.91
68578;SHT31;61668;45.388;11.784;2022-09-09T14:58:44;25.25;67.59
68578;SHT31;61668;45.388;11.784;2022-09-09T15:01:12;25.25;67.16
68578;SHT31;61668;45.388;11.784;2022-09-09T15:03:41;25.25;67.53
68578;SHT31;61668;45.388;11.784;2022-09-09T15:06:14;25.27;67.37
68578;SHT31;61668;45.388;11.784;2022-09-09T15:08:41;25.28;67.30
68578;SHT31;61668;45.388;11.784;2022-09-09T15:11:09;25.29;66.97
68578;SHT31;61668;45.388;11.784;2022-09-09T15:13:37;25.30;66.33
68578;SHT31;61668;45.388;11.784;2022-09-09T15:18:36;25.33;65.25
68578;SHT31;61668;45.388;11.784;2022-09-09T15:21:05;25.34;65.30
68578;SHT31;61668;45.388;11.784;2022-09-09T15:23:34;25.36;65.34
68578;SHT31;61668;45.388;11.784;2022-09-09T15:26:01;25.36;65.12
68578;SHT31;61668;45.388;11.784;2022-09-09T15:28:27;25.36;65.21
68578;SHT31;61668;45.388;11.784;2022-09-09T15:30:54;25.36;65.78
68578;SHT31;61668;45.388;11.784;2022-09-09T15:33:21;25.36;65.78
68578;SHT31;61668;45.388;11.784;2022-09-09T15:35:47;25.38;65.96
68578;SHT31;61668;45.388;11.784;2022-09-09T15:38:15;25.41;65.54
68578;SHT31;61668;45.388;11.784;2022-09-09T15:40:42;25.44;65.31
68578;SHT31;61668;45.388;11.784;2022-09-09T15:43:08;25.47;65.21
68578;SHT31;61668;45.388;11.784;2022-09-09T15:45:35;25.49;65.50
68578;SHT31;61668;45.388;11.784;2022-09-09T15:48:02;25.50;65.31
68578;SHT31;61668;45.388;11.784;2022-09-09T15:50:28;25.49;65.19
68578;SHT31;61668;45.388;11.784;2022-09-09T15:52:57;25.46;65.15
68578;SHT31;61668;45.388;11.784;2022-09-09T15:55:23;25.45;64.89
68578;SHT31;61668;45.388;11.784;2022-09-09T15:57:51;25.43;64.74
68578;SHT31;61668;45.388;11.784;2022-09-09T16:00:18;25.40;64.59
68578;SHT31;61668;45.388;11.784;2022-09-09T16:02:48;25.37;64.95
68578;SHT31;61668;45.388;11.784;2022-09-09T16:05:14;25.34;64.78
68578;SHT31;61668;45.388;11.784;2022-09-09T16:07:39;25.31;64.82
68578;SHT31;61668;45.388;11.784;2022-09-09T16:10:07;25.29;64.88
68578;SHT31;61668;45.388;11.784;2022-09-09T16:12:33;25.28;65.05
68578;SHT31;61668;45.388;11.784;2022-09-09T16:14:59;25.27;65.50
68578;SHT31;61668;45.388;11.784;2022-09-09T16:17:24;25.27;65.57
68578;SHT31;61668;45.388;11.784;2022-09-09T16:19:50;25.27;65.27
68578;SHT31;61668;45.388;11.784;2022-09-09T16:22:15;25.26;64.62
68578;SHT31;61668;45.388;11.784;2022-09-09T16:24:42;25.24;64.28
68578;SHT31;61668;45.388;11.784;2022-09-09T16:27:10;25.21;64.19
68578;SHT31;61668;45.388;11.784;2022-09-09T16:29:36;25.17;64.02
68578;SHT31;61668;45.388;11.784;2022-09-09T16:32:02;25.14;63.85
68578;SHT31;61668;45.388;11.784;2022-09-09T16:34:27;25.12;64.24
68578;SHT31;61668;45.388;11.784;2022-09-09T16:36:53;25.09;64.36
68578;SHT31;61668;45.388;11.784;2022-09-09T16:39:20;25.04;64.71
68578;SHT31;61668;45.388;11.784;2022-09-09T16:41:46;24.99;64.82
68578;SHT31;61668;45.388;11.784;2022-09-09T16:44:14;24.93;65.16
68578;SHT31;61668;45.388;11.784;2022-09-09T16:46:43;24.90;65.20
68578;SHT31;61668;45.388;11.784;2022-09-09T16:49:13;24.89;65.12
68578;SHT31;61668;45.388;11.784;2022-09-09T16:51:44;24.88;65.05
68578;SHT31;61668;45.388;11.784;2022-09-09T16:54:18;24.87;64.95
68578;SHT31;61668;45.388;11.784;2022-09-09T16:56:44;24.85;65.49
68578;SHT31;61668;45.388;11.784;2022-09-09T16:59:16;24.81;65.72
68578;SHT31;61668;45.388;11.784;2022-09-09T17:01:44;24.76;65.48
68578;SHT31;61668;45.388;11.784;2022-09-09T17:04:16;24.71;65.66
68578;SHT31;61668;45.388;11.784;2022-09-09T17:06:49;24.67;66.00
68578;SHT31;61668;45.388;11.784;2022-09-09T17:09:18;24.60;66.30
68578;SHT31;61668;45.388;11.784;2022-09-09T17:11:45;24.54;66.79
68578;SHT31;61668;45.388;11.784;2022-09-09T17:14:14;24.49;67.31
68578;SHT31;61668;45.388;11.784;2022-09-09T17:16:42;24.45;67.54
68578;SHT31;61668;45.388;11.784;2022-09-09T17:19:09;24.41;67.54
68578;SHT31;61668;45.388;11.784;2022-09-09T17:21:35;24.39;67.83
68578;SHT31;61668;45.388;11.784;2022-09-09T17:24:02;24.37;68.14
68578;SHT31;61668;45.388;11.784;2022-09-09T17:26:28;24.32;68.13
68578;SHT31;61668;45.388;11.784;2022-09-09T17:28:57;24.26;68.42
68578;SHT31;61668;45.388;11.784;2022-09-09T17:31:26;24.18;68.62
68578;SHT31;61668;45.388;11.784;2022-09-09T17:33:53;24.12;68.89
68578;SHT31;61668;45.388;11.784;2022-09-09T17:36:25;24.09;69.10
68578;SHT31;61668;45.388;11.784;2022-09-09T17:38:54;24.06;69.43
68578;SHT31;61668;45.388;11.784;2022-09-09T17:41:24;24.02;69.56
68578;SHT31;61668;45.388;11.784;2022-09-09T17:43:53;24.00;69.66
68578;SHT31;61668;45.388;11.784;2022-09-09T17:46:20;23.96;69.64
68578;SHT31;61668;45.388;11.784;2022-09-09T17:49:00;23.93;69.93
68578;SHT31;61668;45.388;11.784;2022-09-09T17:51:30;23.87;70.07
68578;SHT31;61668;45.388;11.784;2022-09-09T17:53:58;23.83;70.08
68578;SHT31;61668;45.388;11.784;2022-09-09T17:56:28;23.75;70.11
68578;SHT31;61668;45.388;11.784;2022-09-09T17:58:56;23.70;70.27
68578;SHT31;61668;45.388;11.784;2022-09-09T18:01:23;23.65;70.36
68578;SHT31;61668;45.388;11.784;2022-09-09T18:03:55;23.60;70.44
68578;SHT31;61668;45.388;11.784;2022-09-09T18:06:23;23.55;70.52
68578;SHT31;61668;45.388;11.784;2022-09-09T18:08:53;23.53;70.66
68578;SHT31;61668;45.388;11.784;2022-09-09T18:11:22;23.50;70.68
68578;SHT31;61668;45.388;11.784;2022-09-09T18:13:51;23.45;70.78
68578;SHT31;61668;45.388;11.784;2022-09-09T18:16:24;23.40;70.82
68578;SHT31;61668;45.388;11.784;2022-09-09T18:18:53;23.33;71.01
68578;SHT31;61668;45.388;11.784;2022-09-09T18:21:22;23.27;71.12
68578;SHT31;61668;45.388;11.784;2022-09-09T18:23:50;23.23;71.15